Time;durP1;ratioP1;P1;durP2;ratioP2;P2;SDS_P1;SDS_P2;PMS_P1;PMS_P2;Temp;Humidity;BMP_temperature;BMP_pressure;BME280_temperature;BME280_humidity;BME280_pressure;Samples;Min_cycle;Max_cycle;Signal;HPM_P1;HPM_P2
2023/12/26 00:02:17;;;;;;;275.48;191.38;;;6.30;99.90;;;;;;4917016;29;20021;-76
2023/12/26 00:04:43;;;;;;;272.23;189.00;;;6.30;99.90;;;;;;4916536;29;20051;-76
2023/12/26 00:07:08;;;;;;;288.85;191.73;;;6.20;99.90;;;;;;4916714;29;20027;-74
2023/12/26 00:09:39;;;;;;;272.40;191.18;;;6.20;99.90;;;;;;4918348;29;20338;-76
2023/12/26 00:12:06;;;;;;;265.77;185.55;;;6.20;99.90;;;;;;4925585;29;20483;-76
2023/12/26 00:14:32;;;;;;;248.15;181.73;;;6.20;99.90;;;;;;4935290;29;20114;-75
2023/12/26 00:16:58;;;;;;;323.13;215.68;;;6.20;99.90;;;;;;4935628;29;20027;-76
2023/12/26 00:19:24;;;;;;;276.40;188.73;;;6.20;99.90;;;;;;4924456;29;20028;-77
2023/12/26 00:21:50;;;;;;;244.40;172.82;;;6.10;99.90;;;;;;4919332;29;20384;-74
2023/12/26 00:24:16;;;;;;;261.98;179.88;;;6.10;99.90;;;;;;4922909;29;20016;-76
2023/12/26 00:26:42;;;;;;;274.58;193.75;;;6.10;99.90;;;;;;4917404;29;20357;-77
2023/12/26 00:29:08;;;;;;;283.63;191.32;;;6.10;99.90;;;;;;4916864;29;20035;-76
2023/12/26 00:31:40;;;;;;;362.73;229.25;;;6.00;99.90;;;;;;4915547;29;20040;-75
2023/12/26 00:34:05;;;;;;;406.20;266.33;;;6.00;99.90;;;;;;4915558;29;20040;-77
2023/12/26 00:36:32;;;;;;;364.65;251.25;;;6.00;99.90;;;;;;4916731;29;20028;-77
2023/12/26 00:38:57;;;;;;;317.73;221.02;;;6.10;99.90;;;;;;4918866;29;20488;-76
2023/12/26 00:41:24;;;;;;;344.33;232.25;;;6.10;99.90;;;;;;4915080;29;20040;-76
2023/12/26 00:43:53;;;;;;;333.73;222.40;;;6.20;99.90;;;;;;4900320;29;20043;-76
2023/12/26 00:46:19;;;;;;;322.30;211.30;;;6.20;99.90;;;;;;4921458;29;20364;-76
2023/12/26 00:48:45;;;;;;;337.88;227.90;;;6.10;99.90;;;;;;4919945;29;20559;-76
2023/12/26 00:51:12;;;;;;;317.90;219.95;;;6.00;99.90;;;;;;4915979;29;20350;-77
2023/12/26 00:53:38;;;;;;;322.75;229.07;;;6.00;99.90;;;;;;4916730;29;20039;-77
2023/12/26 00:56:04;;;;;;;307.10;211.18;;;6.00;99.90;;;;;;4906066;29;20444;-76
2023/12/26 00:58:30;;;;;;;311.42;215.32;;;6.10;99.90;;;;;;4919799;29;20032;-76
2023/12/26 01:00:55;;;;;;;290.77;205.80;;;6.00;99.90;;;;;;4916010;29;20126;-75
2023/12/26 01:03:22;;;;;;;272.55;179.38;;;5.90;99.90;;;;;;4915998;29;20545;-75
2023/12/26 01:05:51;;;;;;;262.58;173.82;;;6.00;99.90;;;;;;4913052;29;20024;-77
2023/12/26 01:08:20;;;;;;;247.48;175.52;;;5.90;99.90;;;;;;4923133;29;20031;-75
2023/12/26 01:10:46;;;;;;;225.85;139.55;;;6.00;99.90;;;;;;4916656;28;20127;-73
2023/12/26 01:13:12;;;;;;;267.73;160.68;;;6.00;99.90;;;;;;4916580;29;20135;-75
2023/12/26 01:15:39;;;;;;;265.08;170.27;;;6.00;99.90;;;;;;4915047;29;20183;-77
2023/12/26 01:18:06;;;;;;;261.33;167.95;;;5.90;99.90;;;;;;4901749;29;20034;-76
2023/12/26 01:20:32;;;;;;;262.77;166.45;;;6.00;99.90;;;;;;4917763;29;20434;-74
2023/12/26 01:22:57;;;;;;;309.15;197.35;;;5.90;99.90;;;;;;4906248;29;20445;-74
2023/12/26 01:25:23;;;;;;;290.05;182.65;;;5.90;99.90;;;;;;4917029;29;20033;-77
2023/12/26 01:27:49;;;;;;;252.38;157.43;;;5.90;99.90;;;;;;4917858;29;20052;-77
2023/12/26 01:30:15;;;;;;;239.95;157.30;;;5.80;99.90;;;;;;4913784;29;20123;-77
2023/12/26 01:32:41;;;;;;;252.63;158.43;;;5.80;99.90;;;;;;4921158;29;20020;-77
2023/12/26 01:35:07;;;;;;;240.70;161.63;;;5.70;99.90;;;;;;4916834;29;20024;-76
2023/12/26 01:37:33;;;;;;;237.57;168.27;;;5.80;99.90;;;;;;4920000;29;20122;-76
2023/12/26 01:39:59;;;;;;;243.52;161.10;;;5.70;99.90;;;;;;4914554;29;20119;-76
2023/12/26 01:42:25;;;;;;;243.77;160.50;;;5.70;99.90;;;;;;4914789;29;20063;-75
2023/12/26 01:44:51;;;;;;;234.73;160.70;;;5.80;99.90;;;;;;4919889;29;20020;-77
2023/12/26 01:47:18;;;;;;;227.82;151.95;;;5.70;99.90;;;;;;4919388;28;20075;-76
2023/12/26 01:49:44;;;;;;;220.32;156.45;;;5.60;99.90;;;;;;4916675;29;20036;-77
2023/12/26 01:52:12;;;;;;;222.02;151.70;;;5.60;99.90;;;;;;4915826;29;20489;-76
2023/12/26 01:54:39;;;;;;;232.27;153.55;;;5.60;99.90;;;;;;4914058;29;20118;-75
2023/12/26 01:57:09;;;;;;;227.05;152.00;;;5.60;99.90;;;;;;4908366;29;20141;-75
2023/12/26 01:59:39;;;;;;;226.40;146.15;;;5.60;99.90;;;;;;4905529;29;20061;-76
2023/12/26 02:02:05;;;;;;;262.58;166.90;;;5.60;99.90;;;;;;4922425;29;20048;-76
2023/12/26 02:04:31;;;;;;;213.32;133.65;;;5.70;99.90;;;;;;4917439;29;20032;-77
2023/12/26 02:06:58;;;;;;;193.88;128.32;;;5.70;99.90;;;;;;4922867;29;20507;-78
2023/12/26 02:09:25;;;;;;;192.35;123.25;;;5.70;99.90;;;;;;4922240;29;20526;-74
2023/12/26 02:11:52;;;;;;;205.68;131.48;;;5.70;99.90;;;;;;4924971;29;20460;-77
2023/12/26 02:14:19;;;;;;;201.20;130.20;;;5.60;99.90;;;;;;4913938;29;20039;-77
2023/12/26 02:16:47;;;;;;;174.95;112.78;;;5.50;99.90;;;;;;4921356;29;20028;-75
2023/12/26 02:19:16;;;;;;;165.65;115.00;;;5.60;99.90;;;;;;4906847;29;20028;-77
2023/12/26 02:21:44;;;;;;;190.07;127.30;;;5.60;99.90;;;;;;4920573;29;20059;-77
2023/12/26 02:24:10;;;;;;;182.57;117.82;;;5.50;99.90;;;;;;4922090;29;20080;-77
2023/12/26 02:26:40;;;;;;;179.48;119.22;;;5.60;99.90;;;;;;4916983;29;20044;-75
2023/12/26 02:29:06;;;;;;;194.65;123.65;;;5.60;99.90;;;;;;4917987;29;20116;-77
2023/12/26 02:31:36;;;;;;;163.43;117.63;;;5.50;99.90;;;;;;4922328;29;20035;-76
2023/12/26 02:34:05;;;;;;;187.15;123.22;;;5.50;99.90;;;;;;4920831;29;20031;-76
2023/12/26 02:36:31;;;;;;;197.80;126.18;;;5.30;99.90;;;;;;4913166;29;20027;-76
2023/12/26 02:38:59;;;;;;;156.85;99.28;;;5.30;99.90;;;;;;4917577;29;20555;-75
2023/12/26 02:41:25;;;;;;;117.45;75.38;;;5.20;99.90;;;;;;4925145;29;20031;-75
2023/12/26 02:43:51;;;;;;;111.43;64.97;;;5.30;99.90;;;;;;4928726;28;20039;-76
2023/12/26 02:46:17;;;;;;;101.82;63.13;;;5.40;99.90;;;;;;4916744;29;20688;-76
2023/12/26 02:48:43;;;;;;;64.82;45.50;;;5.40;99.90;;;;;;4918698;29;20020;-77
2023/12/26 02:51:09;;;;;;;75.28;44.45;;;5.50;99.90;;;;;;4899813;29;20040;-76
2023/12/26 02:53:35;;;;;;;62.75;39.80;;;5.40;99.90;;;;;;4925608;29;20496;-76
2023/12/26 02:56:02;;;;;;;70.28;43.10;;;5.50;99.90;;;;;;4917741;29;20028;-77
2023/12/26 02:58:29;;;;;;;74.28;48.35;;;5.50;99.90;;;;;;4904308;29;20051;-76
2023/12/26 03:00:55;;;;;;;64.47;40.78;;;5.50;99.90;;;;;;4917412;29;20036;-76
2023/12/26 03:03:21;;;;;;;66.43;39.97;;;5.50;99.90;;;;;;4906533;29;20046;-77
2023/12/26 03:05:47;;;;;;;57.90;38.53;;;5.50;99.90;;;;;;4921469;29;20023;-76
2023/12/26 03:08:13;;;;;;;68.70;43.28;;;5.40;99.90;;;;;;4919482;29;20112;-77
2023/12/26 03:10:39;;;;;;;59.00;41.85;;;5.40;99.90;;;;;;4924951;29;20051;-76
2023/12/26 03:13:05;;;;;;;77.90;42.10;;;5.40;99.90;;;;;;4936623;29;20043;-73
2023/12/26 03:15:31;;;;;;;58.88;35.53;;;5.40;99.90;;;;;;4936900;29;20535;-78
2023/12/26 03:17:57;;;;;;;53.95;33.90;;;5.40;99.90;;;;;;4919349;29;20027;-77
2023/12/26 03:20:23;;;;;;;50.20;30.75;;;5.40;99.90;;;;;;4936452;29;20032;-77
2023/12/26 03:22:49;;;;;;;52.92;31.80;;;5.40;99.90;;;;;;4919433;29;20506;-74
2023/12/26 03:25:16;;;;;;;49.95;32.90;;;5.40;99.90;;;;;;4919563;29;20028;-75
2023/12/26 03:27:42;;;;;;;51.67;31.67;;;5.50;99.90;;;;;;4936555;29;20040;-75
2023/12/26 03:30:09;;;;;;;55.88;31.13;;;5.50;99.90;;;;;;4919402;29;20110;-75
2023/12/26 03:32:34;;;;;;;50.33;30.95;;;5.50;99.90;;;;;;4919550;29;20495;-75
2023/12/26 03:35:01;;;;;;;59.00;32.80;;;5.50;99.90;;;;;;4919011;29;20031;-78
2023/12/26 03:37:27;;;;;;;60.00;38.08;;;5.50;99.90;;;;;;4936408;29;20425;-75
2023/12/26 03:39:53;;;;;;;61.13;38.30;;;5.60;99.90;;;;;;4936011;29;20015;-75
2023/12/26 03:42:19;;;;;;;60.75;36.13;;;5.50;99.90;;;;;;4919263;29;20142;-76
2023/12/26 03:44:46;;;;;;;59.72;36.35;;;5.50;99.90;;;;;;4919911;29;20484;-75
2023/12/26 03:47:13;;;;;;;59.50;33.78;;;5.60;99.90;;;;;;4920359;29;20031;-75
2023/12/26 03:49:39;;;;;;;58.72;36.30;;;5.50;99.90;;;;;;4935862;29;20023;-78
2023/12/26 03:52:05;;;;;;;49.80;32.28;;;5.50;99.90;;;;;;4919877;29;20027;-74
2023/12/26 03:54:31;;;;;;;55.00;33.45;;;5.50;99.90;;;;;;4936037;29;20484;-74
2023/12/26 03:56:57;;;;;;;56.20;32.53;;;5.50;99.90;;;;;;4918746;29;20030;-75
2023/12/26 03:59:23;;;;;;;52.78;32.75;;;5.40;99.90;;;;;;4918970;29;20083;-74
2023/12/26 04:01:49;;;;;;;56.97;33.22;;;5.40;99.90;;;;;;4918526;29;20395;-76
2023/12/26 04:04:15;;;;;;;55.22;32.88;;;5.40;99.90;;;;;;4919067;29;20429;-74
2023/12/26 04:06:41;;;;;;;63.53;39.17;;;5.40;99.90;;;;;;4935180;29;20159;-75
2023/12/26 04:09:08;;;;;;;78.63;48.13;;;5.50;99.90;;;;;;4918738;29;20032;-74
2023/12/26 04:11:37;;;;;;;71.75;41.22;;;5.50;99.90;;;;;;4914507;29;20048;-74
2023/12/26 04:14:03;;;;;;;95.30;60.53;;;5.50;99.90;;;;;;4926125;29;20023;-75
2023/12/26 04:16:29;;;;;;;67.57;44.03;;;5.50;99.90;;;;;;4917352;29;20047;-75
2023/12/26 04:18:56;;;;;;;83.07;51.70;;;5.50;99.90;;;;;;4915294;29;20104;-76
2023/12/26 04:21:22;;;;;;;59.60;37.97;;;5.50;99.90;;;;;;4914790;29;20071;-74
2023/12/26 04:23:47;;;;;;;51.47;31.35;;;5.40;99.90;;;;;;4914753;29;20043;-74
2023/12/26 04:26:14;;;;;;;45.42;28.25;;;5.40;99.90;;;;;;4915304;29;20032;-74
2023/12/26 04:28:40;;;;;;;51.13;30.25;;;5.40;99.90;;;;;;4914923;29;20080;-75
2023/12/26 04:31:06;;;;;;;128.65;89.75;;;5.30;99.90;;;;;;4915198;29;20040;-75
2023/12/26 04:33:32;;;;;;;98.97;54.47;;;5.30;99.90;;;;;;4914451;29;20052;-74
2023/12/26 04:35:58;;;;;;;80.72;43.15;;;5.30;99.90;;;;;;4915260;29;20045;-74
2023/12/26 04:38:24;;;;;;;59.78;35.45;;;5.20;99.90;;;;;;4916177;29;20646;-74
2023/12/26 04:40:50;;;;;;;62.38;33.40;;;5.20;99.90;;;;;;4914906;29;20131;-75
2023/12/26 04:43:17;;;;;;;59.60;32.25;;;5.10;99.90;;;;;;4914293;29;20429;-75
2023/12/26 04:45:43;;;;;;;47.42;30.60;;;5.00;99.90;;;;;;4915025;29;20051;-73
2023/12/26 04:48:09;;;;;;;42.28;27.75;;;5.00;99.90;;;;;;4901197;29;20472;-75
2023/12/26 04:50:36;;;;;;;48.45;28.48;;;5.00;99.90;;;;;;4914297;29;20085;-75
2023/12/26 04:53:05;;;;;;;45.33;26.30;;;5.00;99.90;;;;;;4912606;29;20074;-74
2023/12/26 04:55:32;;;;;;;39.80;24.65;;;5.00;99.90;;;;;;4912818;29;20088;-74
2023/12/26 04:57:58;;;;;;;37.67;24.17;;;5.00;99.90;;;;;;4913565;29;20061;-76
2023/12/26 05:00:25;;;;;;;36.75;24.05;;;5.10;99.90;;;;;;4926452;29;20098;-75
2023/12/26 05:02:51;;;;;;;44.42;27.67;;;5.10;99.90;;;;;;4914357;29;20116;-77
2023/12/26 05:05:17;;;;;;;40.97;26.30;;;5.10;99.90;;;;;;4913821;29;20488;-76
2023/12/26 05:07:43;;;;;;;40.13;26.08;;;5.10;99.90;;;;;;4914536;29;20035;-77
2023/12/26 05:10:09;;;;;;;44.40;27.60;;;5.10;99.90;;;;;;4919262;29;20055;-76
2023/12/26 05:12:35;;;;;;;45.35;28.25;;;5.10;99.90;;;;;;4927550;29;20035;-77
2023/12/26 05:15:02;;;;;;;50.92;28.05;;;5.10;99.90;;;;;;4940414;29;20038;-77
2023/12/26 05:17:28;;;;;;;50.85;29.90;;;5.10;99.90;;;;;;4920634;29;20027;-77
2023/12/26 05:19:54;;;;;;;41.80;25.98;;;5.20;99.90;;;;;;4917699;29;20063;-77
2023/12/26 05:22:19;;;;;;;39.80;24.77;;;5.20;99.90;;;;;;4916570;29;20047;-75
2023/12/26 05:24:45;;;;;;;42.47;22.70;;;5.30;99.90;;;;;;4917807;29;20452;-76
2023/12/26 05:27:12;;;;;;;38.80;24.25;;;5.40;99.90;;;;;;4934202;29;20034;-74
2023/12/26 05:29:37;;;;;;;36.95;22.00;;;5.40;99.90;;;;;;4917207;29;20098;-77
2023/12/26 05:32:07;;;;;;;43.80;28.00;;;5.40;99.90;;;;;;4924308;29;20075;-76
2023/12/26 05:34:33;;;;;;;48.75;30.23;;;5.40;99.90;;;;;;4921476;29;20455;-75
2023/12/26 05:37:00;;;;;;;41.80;26.33;;;5.50;99.90;;;;;;4921230;29;20480;-75
2023/12/26 05:39:26;;;;;;;51.05;29.90;;;5.50;99.90;;;;;;4921291;29;20400;-77
2023/12/26 05:41:52;;;;;;;48.95;30.17;;;5.50;99.90;;;;;;4920981;29;20051;-76
2023/12/26 05:44:18;;;;;;;47.83;32.30;;;5.50;99.90;;;;;;4920706;29;20036;-74
2023/12/26 05:46:45;;;;;;;54.40;34.78;;;5.50;99.90;;;;;;4945417;29;20050;-75
2023/12/26 05:49:12;;;;;;;61.65;37.40;;;5.60;99.90;;;;;;4922386;29;20559;-77
2023/12/26 05:51:38;;;;;;;59.00;36.65;;;5.50;99.90;;;;;;4913673;29;20131;-75
2023/12/26 05:54:04;;;;;;;53.83;34.47;;;5.60;99.90;;;;;;4933329;29;20066;-74
2023/12/26 05:56:31;;;;;;;64.47;38.75;;;5.50;99.90;;;;;;4931968;29;20031;-76
2023/12/26 05:58:56;;;;;;;64.05;37.78;;;5.50;99.90;;;;;;4920440;29;20036;-76
2023/12/26 06:01:22;;;;;;;53.20;35.70;;;5.50;99.90;;;;;;4920249;29;20049;-77
2023/12/26 06:03:48;;;;;;;50.92;33.13;;;5.40;99.90;;;;;;4920546;29;20028;-75
2023/12/26 06:06:15;;;;;;;65.10;38.08;;;5.50;99.90;;;;;;4921083;29;20123;-76
2023/12/26 06:08:42;;;;;;;68.82;40.25;;;5.40;99.90;;;;;;4921098;29;20028;-75
2023/12/26 06:11:08;;;;;;;64.32;41.28;;;5.40;99.90;;;;;;4920166;29;20582;-76
2023/12/26 06:13:34;;;;;;;64.88;42.25;;;5.50;99.90;;;;;;4919407;29;20027;-75
2023/12/26 06:16:00;;;;;;;69.05;47.05;;;5.50;99.90;;;;;;4923037;29;20031;-75
2023/12/26 06:18:27;;;;;;;97.57;61.78;;;5.50;99.90;;;;;;4920766;29;20047;-77
2023/12/26 06:20:53;;;;;;;94.45;57.95;;;5.40;99.90;;;;;;4937566;29;20473;-77
2023/12/26 06:23:19;;;;;;;88.35;55.38;;;5.50;99.90;;;;;;4920564;29;20023;-76
2023/12/26 06:25:46;;;;;;;77.28;47.63;;;5.40;99.90;;;;;;4920485;29;20047;-77
2023/12/26 06:28:12;;;;;;;75.35;43.75;;;5.40;99.90;;;;;;4920409;29;20023;-77
2023/12/26 06:30:38;;;;;;;67.07;45.45;;;5.40;99.90;;;;;;4937717;29;20095;-76
2023/12/26 06:33:04;;;;;;;63.85;40.38;;;5.30;99.90;;;;;;4920353;29;20028;-75
2023/12/26 06:35:30;;;;;;;58.15;38.28;;;5.30;99.90;;;;;;4920537;29;20131;-75
2023/12/26 06:37:56;;;;;;;56.63;37.30;;;5.30;99.90;;;;;;4919999;29;20038;-77
2023/12/26 06:40:23;;;;;;;57.40;39.00;;;5.20;99.90;;;;;;4937382;29;20035;-77
2023/12/26 06:42:48;;;;;;;62.15;39.80;;;5.30;99.90;;;;;;4936389;29;20045;-77
2023/12/26 06:45:14;;;;;;;65.40;40.65;;;5.20;99.90;;;;;;4920216;29;20040;-77
2023/12/26 06:47:42;;;;;;;71.97;46.00;;;5.30;99.90;;;;;;4919919;29;20387;-77
2023/12/26 06:50:09;;;;;;;56.05;38.70;;;5.30;99.90;;;;;;4920137;29;20055;-75
2023/12/26 06:52:35;;;;;;;89.40;56.20;;;5.40;99.90;;;;;;4920150;29;20129;-76
2023/12/26 06:55:01;;;;;;;95.60;62.50;;;5.40;99.90;;;;;;4937020;29;20546;-77
2023/12/26 06:57:27;;;;;;;83.38;56.33;;;5.50;99.90;;;;;;4920286;29;20071;-74
2023/12/26 06:59:53;;;;;;;100.82;70.43;;;5.50;99.90;;;;;;4919306;29;20468;-77
2023/12/26 07:02:19;;;;;;;91.28;63.60;;;5.40;99.90;;;;;;4919603;29;20050;-77
2023/12/26 07:04:45;;;;;;;82.28;56.17;;;5.50;99.90;;;;;;4919528;29;20028;-76
2023/12/26 07:07:11;;;;;;;81.20;48.35;;;5.60;99.90;;;;;;4937049;29;20384;-77
2023/12/26 07:09:38;;;;;;;104.88;67.85;;;5.70;99.90;;;;;;4914285;29;20053;-75
2023/12/26 07:12:04;;;;;;;76.57;55.10;;;5.80;99.90;;;;;;4919902;29;20028;-77
2023/12/26 07:14:30;;;;;;;83.55;56.15;;;5.90;99.90;;;;;;4936449;29;20032;-77
2023/12/26 07:16:57;;;;;;;94.72;66.40;;;5.90;99.90;;;;;;4936408;29;20034;-76
2023/12/26 07:19:23;;;;;;;104.47;73.07;;;5.90;99.90;;;;;;4936082;29;20027;-78
2023/12/26 07:21:49;;;;;;;84.15;64.15;;;5.90;99.90;;;;;;4936005;29;20040;-77
2023/12/26 07:24:15;;;;;;;78.93;57.28;;;5.80;99.90;;;;;;4936245;29;20028;-78
2023/12/26 07:26:41;;;;;;;66.47;48.38;;;6.00;99.90;;;;;;4936343;29;20365;-77
2023/12/26 07:29:07;;;;;;;64.10;47.45;;;6.00;99.90;;;;;;4918722;29;20094;-77
2023/12/26 07:31:33;;;;;;;65.38;48.42;;;6.00;99.90;;;;;;4935946;29;20059;-78
2023/12/26 07:34:02;;;;;;;72.63;50.42;;;5.90;99.90;;;;;;4936227;29;20454;-76
2023/12/26 07:36:28;;;;;;;73.85;51.08;;;6.10;99.90;;;;;;4919185;29;20039;-76
2023/12/26 07:38:54;;;;;;;78.35;55.42;;;6.30;99.90;;;;;;4935855;29;20036;-77
2023/12/26 07:41:20;;;;;;;81.97;54.78;;;6.40;99.90;;;;;;4935617;29;20503;-76
2023/12/26 07:43:47;;;;;;;92.97;57.25;;;6.50;99.90;;;;;;4935994;29;20024;-77
2023/12/26 07:46:14;;;;;;;97.03;65.68;;;6.60;99.90;;;;;;4938950;29;20111;-77
2023/12/26 07:48:39;;;;;;;79.45;55.60;;;6.80;99.90;;;;;;4938389;29;20055;-77
2023/12/26 07:51:09;;;;;;;77.80;50.58;;;7.00;99.90;;;;;;4936000;29;20062;-77
2023/12/26 07:53:35;;;;;;;75.35;50.40;;;7.20;99.90;;;;;;4918700;29;20039;-78
2023/12/26 07:56:01;;;;;;;75.45;51.15;;;7.30;99.90;;;;;;4935602;29;20024;-78
2023/12/26 07:58:27;;;;;;;72.97;49.03;;;7.40;99.90;;;;;;4935540;29;20146;-75
2023/12/26 08:00:53;;;;;;;77.65;49.35;;;7.60;99.90;;;;;;4918687;29;20117;-77
2023/12/26 08:03:19;;;;;;;75.22;48.33;;;7.70;99.90;;;;;;4935556;29;20440;-77
2023/12/26 08:05:45;;;;;;;82.68;48.58;;;7.90;99.90;;;;;;4935881;29;20035;-77
2023/12/26 08:08:11;;;;;;;90.47;61.95;;;8.00;99.90;;;;;;4935609;29;20808;-78
2023/12/26 08:10:38;;;;;;;86.97;60.42;;;8.10;99.90;;;;;;4935417;29;20058;-78
2023/12/26 08:13:04;;;;;;;82.55;54.75;;;8.30;99.90;;;;;;4935938;29;20517;-77
2023/12/26 08:15:30;;;;;;;79.88;53.90;;;8.40;99.90;;;;;;4935372;29;20099;-77
2023/12/26 08:17:56;;;;;;;85.38;57.70;;;8.60;99.90;;;;;;4935734;29;20024;-78
2023/12/26 08:20:23;;;;;;;92.63;62.85;;;8.80;99.90;;;;;;4935529;29;20027;-76
2023/12/26 08:22:49;;;;;;;92.05;61.95;;;8.90;99.90;;;;;;4935639;29;20038;-77
2023/12/26 08:25:15;;;;;;;89.68;60.63;;;9.00;99.90;;;;;;4935339;29;20019;-77
2023/12/26 08:27:40;;;;;;;75.85;49.20;;;9.00;99.90;;;;;;4935402;29;20034;-76
2023/12/26 08:30:07;;;;;;;76.20;47.53;;;9.20;99.90;;;;;;4918175;29;20039;-75
2023/12/26 08:32:34;;;;;;;87.43;58.85;;;9.30;99.90;;;;;;4935105;29;20016;-78
2023/12/26 08:35:00;;;;;;;89.25;58.70;;;9.50;99.90;;;;;;4935304;29;20055;-77
2023/12/26 08:37:27;;;;;;;77.15;50.15;;;9.60;99.90;;;;;;4917222;29;20059;-76
2023/12/26 08:39:53;;;;;;;78.22;49.85;;;9.70;99.90;;;;;;4917870;29;20134;-76
2023/12/26 08:42:19;;;;;;;66.38;46.17;;;9.90;99.90;;;;;;4934717;29;20050;-76
2023/12/26 08:44:45;;;;;;;58.25;41.50;;;10.00;99.90;;;;;;4935007;29;20028;-78
2023/12/26 08:47:11;;;;;;;61.78;41.00;;;10.00;99.90;;;;;;4934760;29;20150;-79
2023/12/26 08:49:37;;;;;;;83.75;49.75;;;10.10;99.90;;;;;;4934840;29;20372;-79
2023/12/26 08:52:04;;;;;;;90.60;55.05;;;10.00;99.90;;;;;;4933922;29;20032;-77
2023/12/26 08:54:29;;;;;;;88.03;54.28;;;10.10;99.90;;;;;;4934792;29;20024;-75
2023/12/26 08:56:55;;;;;;;85.82;55.70;;;10.30;99.90;;;;;;4934136;29;20038;-78
2023/12/26 08:59:21;;;;;;;81.13;51.53;;;10.40;99.90;;;;;;4934005;29;20088;-76
2023/12/26 09:01:47;;;;;;;72.68;53.35;;;10.50;99.90;;;;;;4933968;29;20028;-77
2023/12/26 09:04:13;;;;;;;85.45;53.33;;;10.60;99.90;;;;;;4925455;29;20422;-77
2023/12/26 09:06:39;;;;;;;85.15;54.20;;;10.60;99.90;;;;;;4934087;29;20066;-76
2023/12/26 09:09:05;;;;;;;78.15;51.00;;;10.60;99.90;;;;;;4934346;29;20032;-78
2023/12/26 09:11:32;;;;;;;74.90;51.28;;;10.60;99.90;;;;;;4933955;29;20535;-78
2023/12/26 09:13:57;;;;;;;73.38;50.35;;;10.60;99.90;;;;;;4937652;29;20098;-76
2023/12/26 09:16:23;;;;;;;79.45;51.17;;;10.70;99.90;;;;;;4934384;29;20110;-77
2023/12/26 09:18:49;;;;;;;78.68;51.42;;;10.80;99.90;;;;;;4934615;29;20032;-75
2023/12/26 09:21:16;;;;;;;74.78;47.45;;;10.80;99.90;;;;;;4935497;29;20455;-77
2023/12/26 09:23:42;;;;;;;79.97;51.58;;;10.90;99.90;;;;;;4934212;29;20023;-76
2023/12/26 09:26:08;;;;;;;70.30;50.75;;;11.00;99.90;;;;;;4914886;29;20062;-76
2023/12/26 09:28:34;;;;;;;67.32;49.60;;;11.00;99.90;;;;;;4934613;29;20134;-77
2023/12/26 09:31:00;;;;;;;61.70;42.95;;;11.00;99.90;;;;;;4934319;29;20024;-78
2023/12/26 09:33:26;;;;;;;74.70;45.33;;;11.00;99.90;;;;;;4931029;29;20107;-77
2023/12/26 09:35:52;;;;;;;78.30;51.30;;;11.10;99.90;;;;;;4916641;29;20119;-75
2023/12/26 09:38:18;;;;;;;87.63;54.55;;;11.20;99.90;;;;;;4922655;29;20488;-77
2023/12/26 09:40:44;;;;;;;96.07;67.15;;;11.30;99.90;;;;;;4932754;29;20070;-77
2023/12/26 09:43:12;;;;;;;114.55;71.60;;;11.40;99.90;;;;;;4933710;29;20550;-75
2023/12/26 09:45:38;;;;;;;107.57;78.75;;;11.40;99.90;;;;;;4917298;29;20036;-77
2023/12/26 09:48:04;;;;;;;134.35;95.72;;;11.40;99.90;;;;;;4934475;29;20034;-77
2023/12/26 09:50:30;;;;;;;130.85;92.22;;;11.50;99.90;;;;;;4934072;29;20032;-78
2023/12/26 09:53:00;;;;;;;127.95;92.15;;;11.50;99.90;;;;;;4934222;29;20078;-76
2023/12/26 09:55:27;;;;;;;128.85;93.60;;;11.60;99.90;;;;;;4933227;29;20039;-78
2023/12/26 09:57:56;;;;;;;128.65;87.40;;;11.80;99.90;;;;;;4934075;29;20027;-76
2023/12/26 10:00:24;;;;;;;116.00;79.80;;;11.90;99.90;;;;;;4922725;29;20503;-78
2023/12/26 10:02:51;;;;;;;108.80;71.47;;;12.00;99.90;;;;;;4916824;29;20069;-76
2023/12/26 10:05:17;;;;;;;86.28;51.65;;;12.10;99.90;;;;;;4933777;29;20024;-76
2023/12/26 10:07:43;;;;;;;74.68;45.95;;;12.10;99.90;;;;;;4933565;29;20030;-76
2023/12/26 10:10:11;;;;;;;62.78;42.55;;;12.30;99.90;;;;;;4933740;29;20039;-76
2023/12/26 10:12:38;;;;;;;64.03;42.50;;;12.30;99.90;;;;;;4934353;29;20039;-78
2023/12/26 10:15:05;;;;;;;55.72;35.08;;;12.30;99.90;;;;;;4934060;29;20024;-77
2023/12/26 10:17:31;;;;;;;58.15;36.80;;;12.40;99.90;;;;;;4934394;29;20027;-76
2023/12/26 10:19:58;;;;;;;52.05;33.30;;;12.50;99.90;;;;;;4919971;29;20871;-78
2023/12/26 10:22:24;;;;;;;55.65;33.13;;;12.50;99.90;;;;;;4920566;29;20039;-75
2023/12/26 10:24:51;;;;;;;54.92;37.63;;;12.60;99.90;;;;;;4937066;29;20487;-76
2023/12/26 10:27:17;;;;;;;70.88;48.00;;;12.70;99.90;;;;;;4937806;29;20051;-78
2023/12/26 10:29:56;;;;;;;71.22;46.38;;;12.80;99.90;;;;;;4937503;29;20020;-77
2023/12/26 10:32:26;;;;;;;66.35;38.40;;;12.80;99.90;;;;;;4937351;29;20087;-78
2023/12/26 10:34:55;;;;;;;65.38;43.75;;;12.90;99.90;;;;;;4937653;29;20047;-75
2023/12/26 10:37:22;;;;;;;59.25;38.05;;;12.90;99.90;;;;;;4937036;29;20520;-76
2023/12/26 10:39:49;;;;;;;69.00;47.17;;;13.00;99.90;;;;;;4937214;29;20106;-76
2023/12/26 10:42:16;;;;;;;84.35;59.78;;;13.10;99.90;;;;;;4936938;29;20035;-78
2023/12/26 10:45:05;;;;;;;86.57;59.35;;;13.20;99.90;;;;;;4937358;29;20111;-74
2023/12/26 10:47:31;;;;;;;94.07;58.67;;;13.20;99.90;;;;;;4937297;29;20046;-78
2023/12/26 10:50:02;;;;;;;83.30;56.25;;;13.30;99.90;;;;;;4937082;29;20094;-76
2023/12/26 10:52:30;;;;;;;77.10;52.53;;;13.40;99.90;;;;;;4937221;29;20040;-77
2023/12/26 10:55:00;;;;;;;83.40;54.33;;;13.30;99.90;;;;;;4936961;29;20098;-78
2023/12/26 10:57:32;;;;;;;77.95;54.58;;;13.30;99.90;;;;;;4924777;29;20060;-76
2023/12/26 11:00:48;;;;;;;70.13;48.70;;;13.40;99.90;;;;;;4937190;29;20040;-75
2023/12/26 13:52:36;;;;;;;36.47;21.55;;;14.40;99.90;;;;;;4923106;29;20122;-77
2023/12/26 13:55:02;;;;;;;34.03;17.50;;;14.30;99.90;;;;;;4920352;29;20383;-78
2023/12/26 13:57:28;;;;;;;32.15;19.10;;;14.30;99.90;;;;;;4937989;29;20023;-76
2023/12/26 13:59:54;;;;;;;34.28;18.98;;;14.30;99.90;;;;;;4921067;29;20035;-74
2023/12/26 14:02:20;;;;;;;32.80;17.92;;;14.30;99.90;;;;;;4937876;29;20126;-75
2023/12/26 14:04:46;;;;;;;50.05;28.88;;;14.30;99.90;;;;;;4937936;29;20391;-78
2023/12/26 14:07:55;;;;;;;50.90;28.90;;;14.30;99.90;;;;;;4938108;29;20116;-79
2023/12/26 14:10:58;;;;;;;39.97;20.75;;;14.30;99.90;;;;;;4937397;29;20504;-75
2023/12/26 14:14:04;;;;;;;36.75;19.60;;;14.30;99.90;;;;;;4920725;29;20040;-77
2023/12/26 14:17:07;;;;;;;35.40;17.60;;;14.20;99.90;;;;;;4937625;29;20094;-77
2023/12/26 14:20:11;;;;;;;33.13;17.67;;;14.20;99.90;;;;;;4937092;29;20039;-77
2023/12/26 14:22:55;;;;;;;;;;;14.10;99.90;;;;;;4937826;29;20048;-79
2023/12/26 14:25:59;;;;;;;35.80;20.73;;;14.10;99.90;;;;;;4937642;29;19958;-77
2023/12/26 14:29:02;;;;;;;35.70;18.40;;;13.90;99.90;;;;;;4937664;29;20063;-76
2023/12/26 14:32:05;;;;;;;33.28;16.77;;;13.80;99.90;;;;;;4925729;29;20365;-78
2023/12/26 14:35:09;;;;;;;27.40;15.38;;;13.80;99.90;;;;;;4937468;29;20399;-78
2023/12/26 14:38:13;;;;;;;37.85;15.95;;;13.70;99.90;;;;;;4937607;29;20516;-76
2023/12/26 14:41:16;;;;;;;38.40;18.83;;;13.60;99.90;;;;;;4937291;29;20032;-77
2023/12/26 14:44:19;;;;;;;33.17;18.40;;;13.40;99.90;;;;;;4920493;29;20043;-78
2023/12/26 14:47:04;;;;;;;;;;;13.30;99.90;;;;;;4938021;29;20042;-77
2023/12/26 14:50:07;;;;;;;36.20;18.90;;;13.30;99.90;;;;;;4926397;29;19915;-78
2023/12/26 14:53:11;;;;;;;42.92;18.70;;;13.20;99.90;;;;;;4918885;29;20028;-78
2023/12/26 14:56:14;;;;;;;35.72;18.88;;;12.90;99.90;;;;;;4914554;29;20032;-76
2023/12/26 14:59:18;;;;;;;38.25;18.02;;;12.90;99.90;;;;;;4936718;29;20032;-76
2023/12/26 15:02:03;;;;;;;45.47;28.63;;;12.70;99.90;;;;;;4936472;29;20118;-77
2023/12/26 15:04:29;;;;;;;61.22;30.90;;;12.70;99.90;;;;;;4936382;29;20377;-75
2023/12/26 15:06:57;;;;;;;39.58;23.98;;;12.60;99.90;;;;;;4935737;29;20499;-77
2023/12/26 15:09:23;;;;;;;42.22;24.17;;;12.50;99.90;;;;;;4935969;29;20032;-76
2023/12/26 15:11:49;;;;;;;43.08;24.38;;;12.40;99.90;;;;;;4936725;29;20102;-76
2023/12/26 15:14:16;;;;;;;52.83;33.28;;;12.20;99.90;;;;;;4936932;29;20028;-77
2023/12/26 15:16:42;;;;;;;57.13;34.05;;;12.20;99.90;;;;;;4936167;29;20020;-77
2023/12/26 15:19:08;;;;;;;46.10;28.67;;;12.10;99.90;;;;;;4936025;29;20047;-77
2023/12/26 15:21:42;;;;;;;70.20;43.13;;;12.00;99.90;;;;;;4936439;29;20032;-78
2023/12/26 15:24:10;;;;;;;64.50;38.63;;;11.90;99.90;;;;;;4935862;29;20078;-76
2023/12/26 15:26:36;;;;;;;86.28;48.88;;;11.80;99.90;;;;;;4935827;29;20473;-77
2023/12/26 15:29:03;;;;;;;76.32;45.63;;;11.70;99.90;;;;;;4934890;29;20114;-77